Terminal Aerodrome Forecast
Issued by NWS

Home | Current Version | Previous Version | Text Only | Print | Product List | Glossary On
Versions: 1 2 3 4 5 6 7 8 9 10 11 12 13 14 15 16 17 18 19 20 21 22 23 24 25
000
FTUS45 KBOU 221817 AAA
TAFAPA
TAF AMD
KAPA 221817Z 2218/2318 32011KT P6SM FEW220
     FM221900 19013G25KT P6SM SCT220
     FM222000 19022G30KT P6SM FEW100 BKN220
     FM230000 23012G20KT P6SM SCT100 BKN220
     FM230100 36010KT P6SM SCT100 BKN220
     FM230600 06008KT P6SM SCT100 BKN220
     FM231200 05010KT P6SM SCT020 BKN070
      TEMPO 2314/2318 BKN020=

USA.gov is the U.S. government's official web portal to all federal, state and local government web resources and services.